createdAt,value
2023-04-19T00:01:24.740Z,98.90
2023-04-19T00:05:26.979Z,99.10
2023-04-19T00:09:29.207Z,99.00
2023-04-19T00:13:31.069Z,98.90
2023-04-19T00:17:34.034Z,98.70
2023-04-19T00:21:36.055Z,98.50
2023-04-19T00:25:38.107Z,99.10
2023-04-19T00:29:39.957Z,99.20
2023-04-19T00:33:42.935Z,99.00
2023-04-19T00:37:44.682Z,98.80
2023-04-19T00:41:49.008Z,98.70
2023-04-19T00:45:52.388Z,99.30
2023-04-19T00:49:54.630Z,99.00
2023-04-19T00:53:57.542Z,98.80
2023-04-19T00:58:00.178Z,98.70
2023-04-19T01:02:02.116Z,98.40
2023-04-19T01:06:05.012Z,98.80
2023-04-19T01:10:07.302Z,99.10
2023-04-19T01:14:09.556Z,98.70
2023-04-19T01:18:11.495Z,98.60
2023-04-19T01:22:21.623Z,98.60
2023-04-19T01:26:23.527Z,98.80
2023-04-19T01:30:25.551Z,98.60
2023-04-19T01:34:30.650Z,98.80
2023-04-19T01:38:32.508Z,99.40
2023-04-19T01:42:34.520Z,99.20
2023-04-19T01:46:38.868Z,99.50
2023-04-19T01:50:41.172Z,99.70
2023-04-19T01:54:43.246Z,99.50
2023-04-19T01:58:45.090Z,99.90
2023-04-19T02:02:47.632Z,99.90
2023-04-19T02:06:50.670Z,99.90
2023-04-19T02:10:52.780Z,99.70
2023-04-19T02:14:57.966Z,99.70
2023-04-19T02:19:05.036Z,99.60
2023-04-19T02:23:08.397Z,99.70
2023-04-19T02:27:10.364Z,99.60
2023-04-19T02:31:12.345Z,99.50
2023-04-19T02:35:14.152Z,99.50
2023-04-19T02:39:17.201Z,99.60
2023-04-19T02:43:19.119Z,99.40
2023-04-19T02:47:21.318Z,99.70
2023-04-19T02:51:23.232Z,99.70
2023-04-19T02:55:25.598Z,99.50
2023-04-19T02:59:37.537Z,99.50
2023-04-19T03:03:40.443Z,99.60
2023-04-19T03:07:44.464Z,99.50
2023-04-19T03:11:47.113Z,99.50
2023-04-19T03:15:49.212Z,99.40
2023-04-19T03:19:52.669Z,99.40
2023-04-19T03:23:55.890Z,99.90
2023-04-19T03:27:59.573Z,99.90
2023-04-19T03:32:27.388Z,99.90
2023-04-19T03:36:29.366Z,99.90
2023-04-19T03:40:33.880Z,99.90
2023-04-19T03:44:36.446Z,99.90
2023-04-19T03:48:40.778Z,99.90
2023-04-19T03:52:42.766Z,99.90
2023-04-19T03:56:47.868Z,99.90
2023-04-19T04:00:50.841Z,99.90
2023-04-19T04:04:56.606Z,99.90
2023-04-19T04:08:59.378Z,99.90
2023-04-19T04:13:01.318Z,99.90
2023-04-19T04:17:16.160Z,99.90
2023-04-19T04:21:21.539Z,99.90
2023-04-19T04:25:24.409Z,99.90
2023-04-19T04:29:27.182Z,99.90
2023-04-19T04:33:31.345Z,99.90
2023-04-19T04:37:46.984Z,99.90
2023-04-19T04:41:50.022Z,99.90
2023-04-19T04:45:52.155Z,99.90
2023-04-19T04:49:54.423Z,99.90
2023-04-19T04:53:56.731Z,99.90
2023-04-19T04:57:58.777Z,99.90
2023-04-19T05:02:12.848Z,99.90
2023-04-19T05:06:15.344Z,99.90
2023-04-19T05:10:17.667Z,99.90
2023-04-19T05:14:21.148Z,99.90
2023-04-19T05:18:23.441Z,99.90
2023-04-19T05:22:25.726Z,99.90
2023-04-19T05:26:27.917Z,99.90
2023-04-19T05:30:30.280Z,99.90
2023-04-19T05:34:33.256Z,99.90
2023-04-19T05:38:36.006Z,99.90
2023-04-19T05:42:38.756Z,99.90
2023-04-19T05:46:40.762Z,99.90
2023-04-19T05:50:45.821Z,99.90
2023-04-19T05:55:26.061Z,99.90
2023-04-19T05:59:28.402Z,99.90
2023-04-19T06:03:32.328Z,99.90
2023-04-19T06:11:50.134Z,99.90
2023-04-19T06:15:53.404Z,99.90
2023-04-19T06:19:55.677Z,99.90
2023-04-19T06:23:57.756Z,99.90
2023-04-19T06:28:00.367Z,99.80
2023-04-19T06:32:02.431Z,99.40
2023-04-19T06:36:04.808Z,99.90
2023-04-19T06:40:08.455Z,99.40
2023-04-19T06:44:11.652Z,99.20
2023-04-19T06:48:13.736Z,99.30
2023-04-19T06:52:15.689Z,99.20
2023-04-19T06:56:17.583Z,99.20
2023-04-19T07:00:19.796Z,98.70
2023-04-19T07:04:22.065Z,98.60
2023-04-19T07:08:32.231Z,98.80
2023-04-19T07:12:40.735Z,98.80
2023-04-19T07:16:42.671Z,98.60
2023-04-19T07:20:47.441Z,98.50
2023-04-19T07:24:52.066Z,99.50
2023-04-19T07:28:54.132Z,99.80
2023-04-19T07:32:56.186Z,99.90
2023-04-19T07:36:58.182Z,99.00
2023-04-19T07:41:00.221Z,98.40
2023-04-19T07:45:02.185Z,99.50
2023-04-19T07:49:04.402Z,99.40
2023-04-19T07:53:06.524Z,99.30
2023-04-19T07:57:08.974Z,99.50
2023-04-19T08:01:11.273Z,99.60
2023-04-19T08:05:15.370Z,99.50
2023-04-19T08:09:17.636Z,99.80
2023-04-19T08:13:19.628Z,99.90
2023-04-19T08:17:26.946Z,99.50
2023-04-19T08:21:40.700Z,98.90
2023-04-19T08:25:43.650Z,99.20
2023-04-19T08:29:46.295Z,99.90
2023-04-19T08:33:48.233Z,99.10
2023-04-19T08:37:50.490Z,98.90
2023-04-19T08:42:04.932Z,99.30
2023-04-19T08:46:11.436Z,99.00
2023-04-19T08:50:28.298Z,99.10
2023-04-19T08:54:35.826Z,99.20
2023-04-19T09:02:54.613Z,97.80
2023-04-19T09:06:57.041Z,97.60
2023-04-19T09:11:01.454Z,96.60
2023-04-19T09:15:05.181Z,96.50
2023-04-19T09:19:15.563Z,96.90
2023-04-19T09:23:31.413Z,96.90
2023-04-19T09:27:36.513Z,96.00
2023-04-19T09:35:48.215Z,95.30
2023-04-19T09:39:50.599Z,95.80
2023-04-19T09:44:11.696Z,97.30
2023-04-19T09:48:15.904Z,98.10
2023-04-19T09:52:18.209Z,97.60
2023-04-19T09:56:20.477Z,97.20
2023-04-19T10:00:23.197Z,97.30
2023-04-19T10:04:38.497Z,97.40
2023-04-19T10:08:53.540Z,97.60
2023-04-19T10:13:18.305Z,98.10
2023-04-19T10:17:20.349Z,98.20
2023-04-19T10:21:22.933Z,98.30
2023-04-19T10:25:31.215Z,97.80
2023-04-19T10:29:51.720Z,98.90
2023-04-19T10:33:55.306Z,99.10
2023-04-19T10:38:12.772Z,98.00
2023-04-19T10:42:14.615Z,97.70
2023-04-19T10:46:23.198Z,97.40
2023-04-19T10:50:25.564Z,96.70
2023-04-19T10:54:28.596Z,96.80
2023-04-19T10:58:30.473Z,97.00
2023-04-19T11:02:33.709Z,97.60
2023-04-19T11:06:57.209Z,97.90
2023-04-19T11:10:59.352Z,98.60
2023-04-19T11:15:02.008Z,99.30
2023-04-19T11:19:04.071Z,99.50
2023-04-19T11:23:16.762Z,98.90
2023-04-19T11:27:18.917Z,99.10
2023-04-19T11:31:22.233Z,99.40
2023-04-19T11:35:26.496Z,99.70
2023-04-19T11:39:28.572Z,99.60
2023-04-19T11:43:40.768Z,99.90
2023-04-19T11:47:50.229Z,99.90
2023-04-19T11:52:05.392Z,99.90
2023-04-19T11:56:09.040Z,99.90
2023-04-19T12:00:12.112Z,99.90
2023-04-19T12:04:14.594Z,99.90
2023-04-19T12:08:16.772Z,99.90
2023-04-19T12:12:34.348Z,99.90
2023-04-19T12:16:36.391Z,99.90
2023-04-19T12:20:44.015Z,99.90
2023-04-19T12:24:46.054Z,99.90
2023-04-19T12:28:47.954Z,99.90
2023-04-19T12:32:51.480Z,99.90
2023-04-19T12:36:53.651Z,99.90
2023-04-19T12:40:55.968Z,99.90
2023-04-19T12:44:58.036Z,99.90
2023-04-19T12:48:59.986Z,99.90
2023-04-19T12:53:01.988Z,99.90
2023-04-19T12:57:03.950Z,99.90
2023-04-19T13:01:06.443Z,99.90
2023-04-19T13:05:08.944Z,99.90
2023-04-19T13:09:14.936Z,99.90
2023-04-19T13:13:17.285Z,99.90
2023-04-19T13:17:19.869Z,99.90
2023-04-19T13:21:23.540Z,99.90
2023-04-19T13:25:25.665Z,99.90
2023-04-19T13:29:29.150Z,99.90
2023-04-19T13:33:31.453Z,99.90
2023-04-19T13:37:33.422Z,99.90
2023-04-19T13:41:35.649Z,99.90
2023-04-19T13:45:37.804Z,99.90
2023-04-19T13:49:40.673Z,99.90
2023-04-19T13:53:42.609Z,99.90
2023-04-19T13:57:44.615Z,99.90
2023-04-19T14:01:46.615Z,99.90
2023-04-19T14:05:48.685Z,99.90
2023-04-19T14:09:51.692Z,99.90
2023-04-19T14:13:54.125Z,99.90
2023-04-19T14:17:56.315Z,99.90
2023-04-19T14:21:58.279Z,99.90
2023-04-19T14:26:00.339Z,99.90
2023-04-19T14:30:02.764Z,99.90
2023-04-19T14:34:04.728Z,99.90
2023-04-19T14:38:06.807Z,99.90
2023-04-19T14:42:08.839Z,99.90
2023-04-19T14:46:11.007Z,99.90
2023-04-19T14:50:13.050Z,99.90
2023-04-19T14:54:15.367Z,99.90
2023-04-19T14:58:17.147Z,99.90
2023-04-19T15:02:19.198Z,99.90
2023-04-19T15:06:21.288Z,99.90
2023-04-19T15:10:23.313Z,99.90
2023-04-19T15:14:25.242Z,99.90
2023-04-19T15:18:27.150Z,99.90
2023-04-19T15:22:29.027Z,99.90
2023-04-19T15:26:31.064Z,99.90
2023-04-19T15:30:33.021Z,99.60
2023-04-19T15:34:35.149Z,99.60
2023-04-19T15:38:37.132Z,99.40
2023-04-19T15:42:38.984Z,99.00
2023-04-19T15:46:41.369Z,98.80
2023-04-19T15:50:44.319Z,98.70
2023-04-19T15:54:46.416Z,99.00
2023-04-19T15:58:48.256Z,99.20
2023-04-19T16:02:51.642Z,99.30
2023-04-19T16:06:53.809Z,99.90
2023-04-19T16:10:55.725Z,99.90
2023-04-19T16:14:57.752Z,99.90
2023-04-19T16:18:59.969Z,99.90
2023-04-19T16:23:03.528Z,99.90
2023-04-19T16:27:05.784Z,99.90
2023-04-19T16:31:08.157Z,99.60
2023-04-19T16:35:10.392Z,99.90
2023-04-19T16:39:12.759Z,99.90
2023-04-19T16:43:14.715Z,99.90
2023-04-19T16:47:16.887Z,99.90
2023-04-19T16:51:19.001Z,99.90
2023-04-19T16:55:21.693Z,99.90
2023-04-19T16:59:23.647Z,99.90
2023-04-19T17:03:25.839Z,99.90
2023-04-19T17:07:28.024Z,99.20
2023-04-19T17:11:32.437Z,95.00
2023-04-19T17:15:34.434Z,92.20
2023-04-19T17:19:36.767Z,90.80
2023-04-19T17:23:38.894Z,90.90
2023-04-19T17:27:41.006Z,91.70
2023-04-19T17:31:43.106Z,91.80
2023-04-19T17:35:45.120Z,90.70
2023-04-19T17:39:47.005Z,90.80
2023-04-19T17:43:49.001Z,91.60
2023-04-19T17:47:55.305Z,90.70
2023-04-19T17:51:58.275Z,90.90
2023-04-19T17:56:00.413Z,90.70
2023-04-19T18:00:06.534Z,89.10
2023-04-19T18:04:14.717Z,90.90
2023-04-19T18:08:16.868Z,90.80
2023-04-19T18:12:18.764Z,90.60
2023-04-19T18:16:20.996Z,90.00
2023-04-19T18:20:22.875Z,90.30
2023-04-19T18:24:25.037Z,90.80
2023-04-19T18:28:27.349Z,90.40
2023-04-19T18:32:30.207Z,90.00
2023-04-19T18:36:32.504Z,89.80
2023-04-19T18:40:34.564Z,90.60
2023-04-19T18:44:52.799Z,90.80
2023-04-19T18:48:55.578Z,90.20
2023-04-19T18:52:58.453Z,89.80
2023-04-19T19:01:06.569Z,90.70
2023-04-19T19:05:09.571Z,90.10
2023-04-19T19:09:11.785Z,89.50
2023-04-19T19:13:13.627Z,89.90
2023-04-19T19:17:15.810Z,90.00
2023-04-19T19:21:18.597Z,90.00
2023-04-19T19:25:20.816Z,90.50
2023-04-19T19:29:23.185Z,90.00
2023-04-19T19:33:28.363Z,90.10
2023-04-19T19:37:31.099Z,89.80
2023-04-19T19:42:03.212Z,90.10
2023-04-19T19:45:55.546Z,89.60
2023-04-19T19:50:25.454Z,88.40
2023-04-19T19:54:24.521Z,88.10
2023-04-19T19:58:48.161Z,88.90
2023-04-19T20:10:58.719Z,89.00
2023-04-19T20:15:00.658Z,89.30
2023-04-19T20:19:09.447Z,90.20
2023-04-19T20:23:11.485Z,89.30
2023-04-19T20:27:13.658Z,90.30
2023-04-19T20:31:15.890Z,90.80
2023-04-19T20:35:18.319Z,91.10
2023-04-19T20:39:20.389Z,91.50
2023-04-19T20:43:22.511Z,91.50
2023-04-19T20:47:25.695Z,91.60
2023-04-19T20:51:27.605Z,91.70
2023-04-19T20:55:29.854Z,91.70
2023-04-19T20:59:31.785Z,91.80
2023-04-19T21:03:34.011Z,91.80
2023-04-19T21:07:36.183Z,92.40
2023-04-19T21:11:38.114Z,92.40
2023-04-19T21:15:40.243Z,92.40
2023-04-19T21:19:42.298Z,92.60
2023-04-19T21:23:44.257Z,92.50
2023-04-19T21:27:46.475Z,92.60
2023-04-19T21:31:48.632Z,92.10
2023-04-19T21:35:50.937Z,92.20
2023-04-19T21:39:53.146Z,92.30
2023-04-19T21:43:55.469Z,92.60
2023-04-19T21:47:57.730Z,92.60
2023-04-19T21:51:59.878Z,92.50
2023-04-19T21:56:02.975Z,92.40
2023-04-19T22:00:06.862Z,92.40
2023-04-19T22:04:11.661Z,92.60
2023-04-19T22:08:13.731Z,92.60
2023-04-19T22:12:15.713Z,93.10
2023-04-19T22:16:17.959Z,93.30
2023-04-19T22:20:21.107Z,93.40
2023-04-19T22:24:23.137Z,93.30
2023-04-19T22:28:25.421Z,93.30
2023-04-19T22:32:27.480Z,93.40
2023-04-19T22:36:30.561Z,93.20
2023-04-19T22:40:32.353Z,93.50
2023-04-19T22:44:34.166Z,93.50
2023-04-19T22:48:36.378Z,93.60
2023-04-19T22:52:38.431Z,93.30
2023-04-19T22:56:40.601Z,93.60
2023-04-19T23:00:42.579Z,94.00
2023-04-19T23:04:44.775Z,94.00
2023-04-19T23:08:46.876Z,94.10
2023-04-19T23:12:49.011Z,94.20
2023-04-19T23:16:52.259Z,94.00
2023-04-19T23:20:54.266Z,93.90
2023-04-19T23:24:56.469Z,94.10
2023-04-19T23:28:58.640Z,94.10
2023-04-19T23:33:00.679Z,94.00
2023-04-19T23:37:02.661Z,93.60
2023-04-19T23:41:04.822Z,93.60
2023-04-19T23:45:07.197Z,93.40
2023-04-19T23:49:09.082Z,94.10
2023-04-19T23:53:11.629Z,94.00
2023-04-19T23:57:13.565Z,93.80
